createdAt,value
2023-01-30T00:02:10.388Z,11.63
2023-01-30T00:04:38.943Z,11.93
2023-01-30T00:07:07.113Z,11.73
2023-01-30T00:09:36.720Z,12.10
2023-01-30T00:12:05.495Z,11.82
2023-01-30T00:14:33.661Z,11.30
2023-01-30T00:17:01.892Z,12.70
2023-01-30T00:19:30.058Z,11.70
2023-01-30T00:21:58.290Z,12.93
2023-01-30T00:24:26.662Z,12.40
2023-01-30T00:26:56.331Z,11.70
2023-01-30T00:29:24.603Z,12.13
2023-01-30T00:31:52.764Z,12.30
2023-01-30T00:34:20.994Z,11.70
2023-01-30T00:36:56.009Z,11.67
2023-01-30T00:39:34.742Z,11.88
2023-01-30T00:42:22.356Z,12.02
2023-01-30T00:45:08.539Z,12.30
2023-01-30T00:47:36.844Z,12.32
2023-01-30T00:50:05.695Z,12.60
2023-01-30T00:52:34.039Z,12.40
2023-01-30T00:55:02.304Z,11.82
2023-01-30T00:57:32.054Z,11.82
2023-01-30T01:00:00.386Z,12.65
2023-01-30T01:02:28.616Z,12.90
2023-01-30T01:04:56.840Z,11.07
2023-01-30T01:07:25.134Z,12.48
2023-01-30T01:09:53.366Z,12.73
2023-01-30T01:12:21.770Z,12.80
2023-01-30T01:14:51.462Z,11.23
2023-01-30T01:17:19.781Z,11.93
2023-01-30T01:19:48.128Z,12.10
2023-01-30T01:22:16.367Z,12.68
2023-01-30T01:24:44.614Z,12.18
2023-01-30T01:27:13.947Z,12.93
2023-01-30T01:29:42.168Z,10.60
2023-01-30T01:32:12.073Z,12.55
2023-01-30T01:34:41.430Z,11.40
2023-01-30T01:37:09.908Z,11.63
2023-01-30T01:39:51.955Z,12.25
2023-01-30T01:42:20.298Z,11.20
2023-01-30T01:45:03.623Z,12.43
2023-01-30T01:47:35.907Z,11.95
2023-01-30T01:50:06.635Z,11.60
2023-01-30T01:52:36.594Z,12.32
2023-01-30T01:55:08.170Z,11.55
2023-01-30T01:57:41.044Z,12.68
2023-01-30T02:00:12.945Z,11.07
2023-01-30T02:02:45.899Z,11.93
2023-01-30T02:05:16.610Z,11.40
2023-01-30T02:07:48.798Z,11.60
2023-01-30T02:10:20.923Z,11.85
2023-01-30T02:12:51.420Z,12.13
2023-01-30T02:15:21.788Z,12.60
2023-01-30T02:17:51.574Z,11.32
2023-01-30T02:20:28.804Z,11.10
2023-01-30T02:23:33.837Z,11.68
2023-01-30T02:26:33.864Z,12.27
2023-01-30T02:29:33.921Z,11.82
2023-01-30T02:32:08.995Z,11.88
2023-01-30T02:34:45.421Z,12.68
2023-01-30T02:37:31.171Z,12.48
2023-01-30T02:40:14.691Z,12.10
2023-01-30T02:42:47.813Z,12.30
2023-01-30T02:45:23.837Z,12.90
2023-01-30T02:47:59.130Z,12.65
2023-01-30T02:50:30.232Z,12.90
2023-01-30T02:52:59.521Z,13.60
2023-01-30T02:55:30.265Z,14.00
2023-01-30T02:57:59.207Z,13.30
2023-01-30T03:00:42.792Z,13.50
2023-01-30T03:03:32.386Z,13.02
2023-01-30T03:06:21.882Z,13.43
2023-01-30T03:09:03.606Z,13.18
2023-01-30T03:11:39.979Z,12.90
2023-01-30T03:14:15.366Z,13.60
2023-01-30T03:16:44.238Z,13.50
2023-01-30T03:19:15.307Z,13.25
2023-01-30T03:21:44.744Z,12.70
2023-01-30T03:24:13.824Z,12.82
2023-01-30T03:26:47.848Z,13.80
2023-01-30T03:29:16.365Z,13.25
2023-01-30T03:31:45.021Z,14.30
2023-01-30T03:34:15.344Z,13.57
2023-01-30T03:36:43.620Z,13.55
2023-01-30T03:39:12.059Z,13.13
2023-01-30T03:41:40.687Z,13.10
2023-01-30T03:44:09.431Z,12.65
2023-01-30T03:46:37.660Z,12.55
2023-01-30T03:49:05.915Z,13.40
2023-01-30T03:51:36.785Z,13.20
2023-01-30T03:54:05.215Z,12.75
2023-01-30T03:56:33.499Z,13.35
2023-01-30T03:59:02.164Z,12.48
2023-01-30T04:01:38.983Z,13.48
2023-01-30T04:04:07.587Z,12.50
2023-01-30T04:06:37.389Z,12.40
2023-01-30T04:09:06.704Z,12.83
2023-01-30T04:11:55.164Z,12.40
2023-01-30T04:14:24.293Z,13.20
2023-01-30T04:17:10.964Z,12.30
2023-01-30T04:19:59.472Z,12.70
2023-01-30T04:22:29.946Z,13.40
2023-01-30T04:24:58.161Z,12.77
2023-01-30T04:27:26.323Z,12.50
2023-01-30T04:30:09.932Z,12.23
2023-01-30T04:32:38.676Z,11.70
2023-01-30T04:35:07.501Z,12.13
2023-01-30T04:37:37.210Z,12.82
2023-01-30T04:40:06.774Z,12.52
2023-01-30T04:42:36.512Z,11.32
2023-01-30T04:45:28.725Z,12.23
2023-01-30T04:47:57.528Z,12.40
2023-01-30T04:50:26.610Z,12.75
2023-01-30T04:52:56.209Z,12.38
2023-01-30T04:55:24.413Z,11.10
2023-01-30T04:57:52.621Z,11.67
2023-01-30T05:00:21.334Z,11.70
2023-01-30T05:02:55.918Z,11.30
2023-01-30T05:05:24.398Z,10.77
2023-01-30T05:07:52.640Z,10.63
2023-01-30T05:10:22.560Z,11.30
2023-01-30T05:12:51.012Z,10.63
2023-01-30T05:15:19.610Z,10.45
2023-01-30T05:17:47.888Z,10.50
2023-01-30T05:20:16.179Z,10.52
2023-01-30T05:22:44.383Z,10.27
2023-01-30T05:25:12.765Z,10.10
2023-01-30T05:27:42.339Z,9.20
2023-01-30T05:30:11.914Z,9.38
2023-01-30T05:32:40.099Z,8.80
2023-01-30T05:35:09.531Z,8.83
2023-01-30T05:37:39.025Z,8.18
2023-01-30T05:40:09.051Z,8.80
2023-01-30T05:42:37.369Z,8.18
2023-01-30T05:45:08.259Z,9.20
2023-01-30T05:47:36.435Z,8.32
2023-01-30T05:50:04.944Z,8.30
2023-01-30T05:52:33.138Z,8.80
2023-01-30T05:55:01.572Z,8.57
2023-01-30T05:57:29.885Z,8.50
2023-01-30T05:59:58.138Z,7.68
2023-01-30T06:02:27.799Z,8.18
2023-01-30T06:04:55.994Z,9.90
2023-01-30T06:07:24.450Z,8.57
2023-01-30T06:09:52.664Z,9.05
2023-01-30T06:12:20.892Z,9.57
2023-01-30T06:14:49.157Z,9.27
2023-01-30T06:17:17.383Z,9.80
2023-01-30T06:19:46.995Z,8.88
2023-01-30T06:22:15.170Z,8.98
2023-01-30T06:24:43.350Z,9.07
2023-01-30T06:27:24.207Z,8.88
2023-01-30T06:29:55.373Z,9.18
2023-01-30T06:32:24.358Z,10.70
2023-01-30T06:34:53.953Z,12.30
2023-01-30T06:37:22.211Z,11.05
2023-01-30T06:39:50.485Z,11.02
2023-01-30T06:42:18.719Z,11.32
2023-01-30T06:44:46.887Z,11.68
2023-01-30T06:47:15.069Z,11.85
2023-01-30T06:49:43.315Z,11.27
2023-01-30T06:52:12.984Z,11.98
2023-01-30T06:54:41.130Z,10.85
2023-01-30T06:57:09.286Z,10.38
2023-01-30T06:59:38.188Z,10.43
2023-01-30T07:02:06.492Z,10.57
2023-01-30T07:04:35.047Z,11.68
2023-01-30T07:07:03.155Z,12.65
2023-01-30T07:09:32.822Z,11.60
2023-01-30T07:12:01.060Z,10.23
2023-01-30T07:14:29.339Z,10.93
2023-01-30T07:16:57.640Z,9.63
2023-01-30T07:19:25.960Z,9.43
2023-01-30T07:21:54.246Z,8.77
2023-01-30T07:24:22.649Z,8.70
2023-01-30T07:26:52.324Z,9.15
2023-01-30T07:29:20.674Z,8.15
2023-01-30T07:31:48.976Z,7.83
2023-01-30T07:34:17.556Z,7.43
2023-01-30T07:36:46.464Z,6.80
2023-01-30T07:39:14.950Z,7.55
2023-01-30T07:41:43.086Z,5.97
2023-01-30T07:44:14.420Z,5.85
2023-01-30T07:46:42.665Z,5.22
2023-01-30T07:49:11.644Z,5.82
2023-01-30T07:51:41.796Z,6.40
2023-01-30T07:54:10.077Z,5.50
2023-01-30T07:56:38.360Z,4.65
2023-01-30T07:59:06.688Z,5.20
2023-01-30T08:01:36.482Z,6.00
2023-01-30T08:04:04.762Z,5.80
2023-01-30T08:06:37.153Z,5.28
2023-01-30T08:09:05.789Z,4.93
2023-01-30T08:11:34.342Z,5.22
2023-01-30T08:14:02.651Z,5.80
2023-01-30T08:16:32.525Z,5.50
2023-01-30T08:19:02.371Z,4.35
2023-01-30T08:21:30.692Z,3.20
2023-01-30T08:24:00.946Z,3.50
2023-01-30T08:26:29.525Z,3.70
2023-01-30T08:28:57.789Z,2.90
2023-01-30T08:31:26.090Z,2.72
2023-01-30T08:33:54.243Z,2.30
2023-01-30T08:36:23.921Z,2.92
2023-01-30T08:38:52.170Z,2.90
2023-01-30T08:41:20.347Z,2.87
2023-01-30T08:43:48.562Z,2.00
2023-01-30T08:46:17.665Z,2.28
2023-01-30T08:48:50.024Z,2.47
2023-01-30T08:51:18.970Z,2.40
2023-01-30T08:53:48.607Z,2.20
2023-01-30T08:56:16.826Z,2.00
2023-01-30T08:58:46.753Z,1.90
2023-01-30T09:01:15.028Z,2.10
2023-01-30T09:03:43.871Z,2.17
2023-01-30T09:06:12.198Z,2.08
2023-01-30T09:08:40.573Z,2.20
2023-01-30T09:11:11.930Z,2.35
2023-01-30T09:13:43.496Z,1.88
2023-01-30T09:16:12.465Z,2.45
2023-01-30T09:18:41.797Z,2.00
2023-01-30T09:21:11.239Z,2.40
2023-01-30T09:23:40.054Z,2.40
2023-01-30T09:26:09.665Z,2.30
2023-01-30T09:28:38.121Z,2.50
2023-01-30T09:31:06.608Z,2.60
2023-01-30T09:33:35.052Z,2.40
2023-01-30T09:36:03.309Z,2.63
2023-01-30T09:38:31.667Z,2.42
2023-01-30T09:41:37.296Z,2.88
2023-01-30T09:44:18.508Z,3.43
2023-01-30T09:46:52.011Z,1.90
2023-01-30T09:49:33.022Z,2.42
2023-01-30T09:52:14.160Z,2.45
2023-01-30T09:54:45.965Z,1.70
2023-01-30T09:57:21.384Z,1.90
2023-01-30T09:59:59.102Z,1.95
2023-01-30T10:02:51.431Z,2.63
2023-01-30T10:05:20.093Z,2.50
2023-01-30T10:08:12.866Z,1.65
2023-01-30T10:10:55.073Z,3.03
2023-01-30T10:13:54.261Z,2.80
2023-01-30T10:16:28.460Z,2.47
2023-01-30T10:19:33.638Z,2.60
2023-01-30T10:22:17.704Z,2.30
2023-01-30T10:24:56.946Z,2.60
2023-01-30T10:27:26.826Z,2.22
2023-01-30T10:29:59.181Z,2.50
2023-01-30T10:32:33.987Z,3.37
2023-01-30T10:35:07.843Z,3.10
2023-01-30T10:37:45.828Z,2.30
2023-01-30T10:40:21.642Z,2.78
2023-01-30T10:42:56.503Z,2.80
2023-01-30T10:45:34.723Z,2.10
2023-01-30T10:48:42.207Z,2.60
2023-01-30T10:51:24.468Z,2.05
2023-01-30T10:53:57.745Z,2.40
2023-01-30T10:56:36.013Z,2.40
2023-01-30T10:59:16.118Z,2.00
2023-01-30T11:01:51.417Z,2.90
2023-01-30T11:04:27.489Z,2.85
2023-01-30T11:06:57.780Z,2.10
2023-01-30T11:09:26.111Z,2.50
2023-01-30T11:11:55.597Z,2.13
2023-01-30T11:14:23.923Z,2.30
2023-01-30T11:16:55.734Z,2.80
2023-01-30T11:19:25.933Z,1.80
2023-01-30T11:21:56.637Z,2.50
2023-01-30T11:24:30.502Z,2.07
2023-01-30T11:27:11.272Z,1.70
2023-01-30T11:29:40.913Z,2.28
2023-01-30T11:32:20.749Z,2.10
2023-01-30T11:35:05.457Z,2.55
2023-01-30T11:37:35.666Z,2.13
2023-01-30T11:40:21.451Z,2.38
2023-01-30T11:42:52.292Z,1.67
2023-01-30T11:45:22.133Z,2.28
2023-01-30T11:48:03.916Z,3.00
2023-01-30T11:50:36.370Z,2.05
2023-01-30T11:53:31.887Z,16.60
2023-01-30T11:56:08.547Z,3.80
2023-01-30T11:58:41.120Z,4.63
2023-01-30T12:01:11.902Z,3.20
2023-01-30T12:03:48.715Z,2.38
2023-01-30T12:06:30.597Z,2.60
2023-01-30T12:08:59.772Z,2.67
2023-01-30T12:11:42.337Z,2.42
2023-01-30T12:14:21.236Z,4.32
2023-01-30T12:16:57.024Z,2.97
2023-01-30T12:19:37.291Z,2.63
2023-01-30T12:22:19.294Z,2.40
2023-01-30T12:24:54.134Z,2.05
2023-01-30T12:27:29.160Z,1.73
2023-01-30T12:30:03.282Z,2.33
2023-01-30T12:32:34.744Z,2.00
2023-01-30T12:35:16.270Z,2.60
2023-01-30T12:37:59.668Z,2.40
2023-01-30T12:40:39.723Z,2.47
2023-01-30T12:43:35.083Z,2.65
2023-01-30T12:46:16.353Z,2.25
2023-01-30T12:49:10.937Z,2.47
2023-01-30T12:51:58.700Z,2.33
2023-01-30T12:54:43.639Z,1.95
2023-01-30T12:57:23.460Z,2.80
2023-01-30T13:00:05.401Z,2.10
2023-01-30T13:02:49.880Z,2.63
2023-01-30T13:05:34.093Z,1.70
2023-01-30T13:08:18.635Z,1.90
2023-01-30T13:10:53.138Z,1.77
2023-01-30T13:13:27.739Z,1.75
2023-01-30T13:16:05.422Z,1.77
2023-01-30T13:18:38.735Z,2.00
2023-01-30T13:21:13.342Z,1.90
2023-01-30T13:23:54.597Z,1.55
2023-01-30T13:26:26.031Z,1.58
2023-01-30T13:28:59.867Z,2.93
2023-01-30T13:31:31.167Z,2.13
2023-01-30T13:34:07.650Z,1.60
2023-01-30T13:36:44.754Z,2.40
2023-01-30T13:41:59.411Z,1.90
2023-01-30T13:44:31.455Z,2.00
2023-01-30T13:47:04.979Z,1.55
2023-01-30T13:49:46.001Z,1.63
2023-01-30T13:52:23.339Z,2.00
2023-01-30T13:55:00.720Z,2.05
2023-01-30T13:57:44.617Z,2.03
2023-01-30T14:00:28.406Z,1.73
2023-01-30T14:03:16.655Z,1.50
2023-01-30T14:06:13.162Z,2.00
2023-01-30T14:08:50.992Z,2.22
2023-01-30T14:11:42.743Z,1.80
2023-01-30T14:14:29.957Z,1.52
2023-01-30T14:17:09.951Z,2.20
2023-01-30T14:19:42.355Z,2.40
2023-01-30T14:22:23.571Z,1.88
2023-01-30T14:25:25.261Z,3.60
2023-01-30T14:27:56.851Z,5.25
2023-01-30T14:30:39.028Z,3.55
2023-01-30T14:33:36.135Z,3.20
2023-01-30T14:36:35.247Z,2.08
2023-01-30T14:39:38.414Z,2.70
2023-01-30T14:42:24.563Z,2.10
2023-01-30T14:45:04.836Z,2.20
2023-01-30T14:47:46.459Z,1.90
2023-01-30T14:50:22.549Z,2.40
2023-01-30T14:52:55.782Z,2.25
2023-01-30T14:55:29.508Z,1.50
2023-01-30T14:58:00.008Z,2.72
2023-01-30T15:00:32.337Z,2.20
2023-01-30T15:03:03.391Z,1.92
2023-01-30T15:05:42.390Z,2.70
2023-01-30T15:08:16.163Z,1.67
2023-01-30T15:11:06.236Z,2.55
2023-01-30T15:13:50.167Z,4.35
2023-01-30T15:16:49.529Z,3.55
2023-01-30T15:19:44.988Z,1.45
2023-01-30T15:22:24.532Z,2.53
2023-01-30T15:25:16.746Z,1.90
2023-01-30T15:28:00.833Z,2.50
2023-01-30T15:30:44.988Z,2.38
2023-01-30T15:33:29.301Z,2.50
2023-01-30T15:35:59.063Z,2.80
2023-01-30T15:38:31.758Z,4.93
2023-01-30T15:41:03.987Z,2.95
2023-01-30T15:43:57.189Z,2.92
2023-01-30T15:46:34.664Z,2.40
2023-01-30T15:49:19.102Z,3.38
2023-01-30T15:51:47.382Z,3.38
2023-01-30T15:54:20.271Z,5.82
2023-01-30T15:56:50.092Z,2.40
2023-01-30T15:59:29.450Z,2.90
2023-01-30T16:02:06.092Z,3.25
2023-01-30T16:04:34.432Z,3.80
2023-01-30T16:07:16.026Z,3.10
2023-01-30T16:10:06.722Z,2.92
2023-01-30T16:12:36.507Z,2.60
2023-01-30T16:15:18.842Z,1.80
2023-01-30T16:17:56.293Z,2.22
2023-01-30T16:20:24.778Z,2.37
2023-01-30T16:22:53.338Z,2.38
2023-01-30T16:25:26.006Z,3.00
2023-01-30T16:27:54.495Z,1.90
2023-01-30T16:30:25.536Z,2.13
2023-01-30T16:32:56.159Z,2.42
2023-01-30T16:35:34.169Z,2.90
2023-01-30T16:38:05.614Z,2.20
2023-01-30T16:40:46.816Z,3.45
2023-01-30T16:43:21.628Z,2.30
2023-01-30T16:46:22.735Z,2.30
2023-01-30T16:48:51.568Z,2.58
2023-01-30T16:51:28.690Z,2.83
2023-01-30T16:54:01.238Z,2.05
2023-01-30T16:56:32.918Z,1.95
2023-01-30T16:59:02.819Z,1.67
2023-01-30T17:01:41.371Z,2.08
2023-01-30T17:04:20.659Z,2.30
2023-01-30T17:06:55.432Z,1.98
2023-01-30T17:09:41.642Z,1.70
2023-01-30T17:12:45.414Z,1.83
2023-01-30T17:15:36.593Z,1.98
2023-01-30T17:18:05.142Z,2.10
2023-01-30T17:20:45.428Z,1.80
2023-01-30T17:23:18.509Z,1.93
2023-01-30T17:25:49.308Z,2.45
2023-01-30T17:28:21.649Z,1.95
2023-01-30T17:30:51.027Z,2.28
2023-01-30T17:33:20.136Z,2.50
2023-01-30T17:35:48.518Z,2.40
2023-01-30T17:38:16.713Z,2.90
2023-01-30T17:40:45.447Z,2.53
2023-01-30T17:43:13.707Z,2.40
2023-01-30T17:45:43.316Z,2.20
2023-01-30T17:48:14.155Z,1.90
2023-01-30T17:50:42.837Z,2.15
2023-01-30T17:53:11.259Z,2.65
2023-01-30T17:55:39.700Z,2.70
2023-01-30T17:58:07.937Z,2.23
2023-01-30T18:00:36.170Z,2.60
2023-01-30T18:03:05.738Z,2.00
2023-01-30T18:05:34.336Z,1.92
2023-01-30T18:08:02.780Z,1.80
2023-01-30T18:10:31.323Z,2.38
2023-01-30T18:12:59.677Z,2.33
2023-01-30T18:15:28.394Z,2.13
2023-01-30T18:17:56.915Z,1.80
2023-01-30T18:20:26.608Z,2.10
2023-01-30T18:22:54.998Z,2.10
2023-01-30T18:25:23.310Z,2.05
2023-01-30T18:27:51.637Z,2.85
2023-01-30T18:30:20.546Z,2.10
2023-01-30T18:32:53.336Z,3.30
2023-01-30T18:35:23.181Z,2.50
2023-01-30T18:37:53.017Z,2.58
2023-01-30T18:40:22.227Z,2.30
2023-01-30T18:42:50.942Z,2.60
2023-01-30T18:45:19.184Z,2.30
2023-01-30T18:47:47.463Z,2.83
2023-01-30T18:50:15.695Z,2.50
2023-01-30T18:52:43.994Z,3.75
2023-01-30T18:55:13.970Z,9.17
2023-01-30T18:57:42.255Z,6.88
2023-01-30T19:00:11.692Z,6.65
2023-01-30T19:02:39.973Z,4.53
2023-01-30T19:05:09.115Z,4.30
2023-01-30T19:07:37.617Z,2.50
2023-01-30T19:10:06.572Z,2.90
2023-01-30T19:12:54.019Z,2.78
2023-01-30T19:15:22.484Z,2.80
2023-01-30T19:17:50.645Z,2.30
2023-01-30T19:20:21.479Z,2.50
2023-01-30T19:22:51.645Z,2.80
2023-01-30T19:25:19.878Z,2.42
2023-01-30T19:27:49.546Z,1.83
2023-01-30T19:30:18.434Z,2.25
2023-01-30T19:32:46.828Z,2.50
2023-01-30T19:35:15.035Z,2.85
2023-01-30T19:37:43.340Z,3.20
2023-01-30T19:40:13.138Z,2.78
2023-01-30T19:42:44.432Z,5.68
2023-01-30T19:45:14.966Z,4.22
2023-01-30T19:47:43.190Z,7.75
2023-01-30T19:50:12.497Z,3.47
2023-01-30T19:52:41.921Z,3.80
2023-01-30T19:55:10.583Z,4.13
2023-01-30T19:57:39.036Z,3.20
2023-01-30T20:00:08.700Z,4.20
2023-01-30T20:02:38.477Z,3.08
2023-01-30T20:05:07.703Z,2.88
2023-01-30T20:07:37.321Z,4.03
2023-01-30T20:10:06.298Z,2.67
2023-01-30T20:12:35.693Z,3.17
2023-01-30T20:15:04.826Z,2.97
2023-01-30T20:17:33.674Z,3.00
2023-01-30T20:20:03.613Z,3.70
2023-01-30T20:22:31.997Z,3.85
2023-01-30T20:25:00.247Z,2.80
2023-01-30T20:27:28.747Z,2.80
2023-01-30T20:29:56.986Z,4.77
2023-01-30T20:32:25.194Z,3.47
2023-01-30T20:34:53.348Z,3.90
2023-01-30T20:37:23.618Z,4.40
2023-01-30T20:39:52.014Z,2.50
2023-01-30T20:42:20.237Z,3.17
2023-01-30T20:44:48.757Z,2.50
2023-01-30T20:47:16.962Z,2.78
2023-01-30T20:49:45.211Z,3.00
2023-01-30T20:52:13.543Z,3.00
2023-01-30T20:54:43.129Z,2.65
2023-01-30T20:57:11.772Z,2.58
2023-01-30T20:59:40.589Z,3.20
2023-01-30T21:02:10.088Z,2.60
2023-01-30T21:04:39.512Z,3.20
2023-01-30T21:07:07.790Z,3.22
2023-01-30T21:09:35.983Z,3.47
2023-01-30T21:12:05.602Z,3.10
2023-01-30T21:14:33.827Z,2.88
2023-01-30T21:17:02.045Z,2.28
2023-01-30T21:19:30.343Z,3.13
2023-01-30T21:21:59.480Z,2.90
2023-01-30T21:24:29.637Z,2.72
2023-01-30T21:26:58.494Z,2.80
2023-01-30T21:29:30.000Z,3.00
2023-01-30T21:31:59.166Z,2.83
2023-01-30T21:34:27.537Z,3.20
2023-01-30T21:37:13.330Z,2.40
2023-01-30T21:39:59.285Z,2.53
2023-01-30T21:42:44.748Z,2.50
2023-01-30T21:45:15.425Z,3.40
2023-01-30T21:47:43.630Z,2.80
2023-01-30T21:50:12.414Z,3.00
2023-01-30T21:52:40.763Z,3.20
2023-01-30T21:55:10.023Z,2.60
2023-01-30T21:57:38.825Z,2.40
2023-01-30T22:00:08.417Z,2.40
2023-01-30T22:02:38.024Z,3.08
2023-01-30T22:05:07.185Z,2.27
2023-01-30T22:07:35.442Z,1.88
2023-01-30T22:10:03.899Z,2.15
2023-01-30T22:12:32.503Z,3.38
2023-01-30T22:15:00.788Z,2.75
2023-01-30T22:17:29.081Z,3.00
2023-01-30T22:19:58.716Z,2.58
2023-01-30T22:22:27.084Z,3.20
2023-01-30T22:24:55.390Z,2.80
2023-01-30T22:27:23.552Z,3.40
2023-01-30T22:29:51.771Z,3.63
2023-01-30T22:32:19.953Z,2.77
2023-01-30T22:34:48.212Z,2.37
2023-01-30T22:37:17.742Z,2.30
2023-01-30T22:39:45.949Z,2.65
2023-01-30T22:42:14.396Z,2.40
2023-01-30T22:44:42.734Z,2.70
2023-01-30T22:47:11.285Z,3.30
2023-01-30T22:49:39.697Z,3.97
2023-01-30T22:52:07.887Z,2.57
2023-01-30T22:54:37.498Z,2.53
2023-01-30T22:57:05.676Z,3.47
2023-01-30T22:59:33.885Z,4.25
2023-01-30T23:02:02.289Z,2.67
2023-01-30T23:04:31.386Z,3.10
2023-01-30T23:06:59.725Z,2.80
2023-01-30T23:09:27.974Z,2.90
2023-01-30T23:12:16.279Z,3.47
2023-01-30T23:14:45.114Z,3.05
2023-01-30T23:17:31.231Z,2.83
2023-01-30T23:19:59.727Z,3.10
2023-01-30T23:22:28.085Z,3.13
2023-01-30T23:24:56.582Z,3.13
2023-01-30T23:27:26.314Z,3.00
2023-01-30T23:29:54.536Z,3.03
2023-01-30T23:32:23.800Z,3.50
2023-01-30T23:34:52.047Z,3.00
2023-01-30T23:37:40.956Z,3.00
2023-01-30T23:40:11.070Z,2.83
2023-01-30T23:42:41.024Z,2.80
2023-01-30T23:45:10.312Z,2.70
2023-01-30T23:47:38.899Z,2.20
2023-01-30T23:50:07.644Z,2.90
2023-01-30T23:52:36.323Z,2.53
2023-01-30T23:55:04.884Z,2.55
2023-01-30T23:57:33.086Z,2.40
